createdAt,value
2023-03-29T00:00:24.596Z,101683.84
2023-03-29T00:02:55.864Z,101690.67
2023-03-29T00:05:25.406Z,101685.81
2023-03-29T00:07:54.819Z,101685.28
2023-03-29T00:10:24.285Z,101681.70
2023-03-29T00:12:53.899Z,101686.44
2023-03-29T00:15:23.301Z,101674.06
2023-03-29T00:17:53.095Z,101660.47
2023-03-29T00:20:22.749Z,101664.52
2023-03-29T00:22:52.029Z,101656.81
2023-03-29T00:25:21.754Z,101660.66
2023-03-29T00:27:51.207Z,101651.80
2023-03-29T00:30:21.000Z,101650.56
2023-03-29T00:32:51.591Z,101645.55
2023-03-29T00:35:21.073Z,101640.38
2023-03-29T00:37:52.332Z,101633.93
2023-03-29T00:40:21.708Z,101643.00
2023-03-29T00:42:51.227Z,101643.20
2023-03-29T00:45:23.392Z,101632.04
2023-03-29T00:47:58.318Z,101630.73
2023-03-29T00:50:30.960Z,101625.42
2023-03-29T00:53:06.484Z,101625.63
2023-03-29T00:55:38.579Z,101624.23
2023-03-29T00:58:12.206Z,101624.29
2023-03-29T01:00:44.808Z,101617.77
2023-03-29T01:03:17.933Z,101612.86
2023-03-29T01:05:49.547Z,101611.46
2023-03-29T01:08:33.081Z,101619.97
2023-03-29T01:11:17.684Z,101608.11
2023-03-29T01:13:56.542Z,101603.27
2023-03-29T01:16:28.460Z,101606.63
2023-03-29T01:19:02.320Z,101604.09
2023-03-29T01:21:51.502Z,101596.48
2023-03-29T01:24:26.843Z,101598.30
2023-03-29T01:27:08.398Z,101599.09
2023-03-29T01:29:47.085Z,101590.02
2023-03-29T01:32:19.053Z,101584.12
2023-03-29T01:34:54.208Z,101588.82
2023-03-29T01:37:32.945Z,101582.11
2023-03-29T01:40:04.300Z,101574.67
2023-03-29T01:42:37.132Z,101571.12
2023-03-29T01:45:18.678Z,101562.90
2023-03-29T01:47:54.606Z,101559.60
2023-03-29T01:50:29.853Z,101559.86
2023-03-29T01:53:02.099Z,101561.77
2023-03-29T01:55:38.597Z,101555.50
2023-03-29T01:58:09.456Z,101549.05
2023-03-29T02:00:40.012Z,101546.42
2023-03-29T02:03:10.659Z,101546.60
2023-03-29T02:05:42.358Z,101544.64
2023-03-29T02:08:14.401Z,101544.16
2023-03-29T02:10:43.872Z,101547.34
2023-03-29T02:13:13.326Z,101550.16
2023-03-29T02:15:44.710Z,101546.05
2023-03-29T02:18:16.391Z,101543.97
2023-03-29T02:20:48.606Z,101541.55
2023-03-29T02:23:27.315Z,101539.95
2023-03-29T02:25:57.233Z,101539.87
2023-03-29T02:28:28.015Z,101541.63
2023-03-29T02:31:19.044Z,101536.48
2023-03-29T02:34:03.453Z,101534.41
2023-03-29T02:36:44.021Z,101534.22
2023-03-29T02:39:15.761Z,101517.48
2023-03-29T02:41:47.950Z,101515.81
2023-03-29T02:44:22.283Z,101509.46
2023-03-29T02:46:54.691Z,101506.94
2023-03-29T02:49:24.396Z,101503.75
2023-03-29T02:51:56.747Z,101505.06
2023-03-29T02:54:30.010Z,101504.23
2023-03-29T02:57:02.585Z,101504.03
2023-03-29T02:59:32.364Z,101498.03
2023-03-29T03:02:03.387Z,101505.25
2023-03-29T03:04:35.753Z,101503.86
2023-03-29T03:07:05.849Z,101508.23
2023-03-29T03:09:35.644Z,101502.19
2023-03-29T03:12:05.543Z,101502.29
2023-03-29T03:14:35.129Z,101499.30
2023-03-29T03:17:04.971Z,101499.13
2023-03-29T03:19:34.947Z,101498.58
2023-03-29T03:22:06.039Z,101489.80
2023-03-29T03:24:35.565Z,101491.28
2023-03-29T03:27:05.179Z,101489.16
2023-03-29T03:29:35.992Z,101489.52
2023-03-29T03:32:16.376Z,101478.96
2023-03-29T03:35:05.602Z,101486.63
2023-03-29T03:37:35.989Z,101486.27
2023-03-29T03:40:08.939Z,101484.59
2023-03-29T03:42:39.242Z,101483.81
2023-03-29T03:45:10.704Z,101488.96
2023-03-29T03:47:51.922Z,101482.78
2023-03-29T03:50:28.675Z,101480.38
2023-03-29T03:52:58.597Z,101483.91
2023-03-29T03:55:30.147Z,101484.27
2023-03-29T03:58:08.088Z,101483.14
2023-03-29T04:00:37.692Z,101484.55
2023-03-29T04:03:08.957Z,101487.08
2023-03-29T04:05:42.122Z,101487.08
2023-03-29T04:08:13.291Z,101484.76
2023-03-29T04:10:45.189Z,101484.58
2023-03-29T04:13:16.150Z,101476.14
2023-03-29T04:15:49.194Z,101476.42
2023-03-29T04:18:18.618Z,101477.00
2023-03-29T04:20:50.181Z,101470.45
2023-03-29T04:23:20.887Z,101469.33
2023-03-29T04:25:52.909Z,101471.94
2023-03-29T04:28:24.186Z,101470.27
2023-03-29T04:30:55.298Z,101467.86
2023-03-29T04:33:46.677Z,101462.04
2023-03-29T04:36:16.502Z,101456.52
2023-03-29T04:38:48.087Z,101450.06
2023-03-29T04:41:18.451Z,101445.04
2023-03-29T04:43:53.685Z,101440.45
2023-03-29T04:46:27.592Z,101444.55
2023-03-29T04:49:15.251Z,101446.98
2023-03-29T04:51:46.441Z,101443.92
2023-03-29T04:54:17.909Z,101446.44
2023-03-29T04:57:08.812Z,101451.87
2023-03-29T04:59:40.211Z,101445.98
2023-03-29T05:02:11.810Z,101447.48
2023-03-29T05:04:43.121Z,101450.63
2023-03-29T05:07:15.325Z,101447.09
2023-03-29T05:09:44.616Z,101445.58
2023-03-29T05:12:14.151Z,101443.34
2023-03-29T05:14:56.888Z,101440.36
2023-03-29T05:17:28.254Z,101453.82
2023-03-29T05:19:59.524Z,101453.44
2023-03-29T05:22:30.273Z,101459.44
2023-03-29T05:24:59.657Z,101460.28
2023-03-29T05:27:29.784Z,101462.53
2023-03-29T05:30:01.989Z,101461.48
2023-03-29T05:32:32.979Z,101464.47
2023-03-29T05:35:02.871Z,101466.93
2023-03-29T05:37:36.975Z,101464.58
2023-03-29T05:40:08.558Z,101461.30
2023-03-29T05:42:39.582Z,101460.45
2023-03-29T05:45:11.683Z,101460.94
2023-03-29T05:47:42.419Z,101467.58
2023-03-29T05:50:12.227Z,101469.36
2023-03-29T05:52:43.251Z,101457.99
2023-03-29T05:55:14.355Z,101463.89
2023-03-29T05:57:43.711Z,101466.42
2023-03-29T06:00:22.016Z,101467.84
2023-03-29T06:02:53.813Z,101461.45
2023-03-29T06:05:25.079Z,101459.94
2023-03-29T06:07:59.239Z,101467.77
2023-03-29T06:10:39.563Z,101464.33
2023-03-29T06:13:13.819Z,101466.75
2023-03-29T06:15:43.245Z,101469.38
2023-03-29T06:18:13.021Z,101462.33
2023-03-29T06:20:42.707Z,101464.59
2023-03-29T06:23:14.049Z,101461.73
2023-03-29T06:25:45.241Z,101458.25
2023-03-29T06:28:16.444Z,101452.34
2023-03-29T06:30:47.542Z,101461.88
2023-03-29T06:33:18.631Z,101454.56
2023-03-29T06:35:50.831Z,101461.63
2023-03-29T06:38:22.651Z,101458.39
2023-03-29T06:41:05.211Z,101466.67
2023-03-29T06:43:51.593Z,101459.84
2023-03-29T06:46:23.188Z,101463.94
2023-03-29T06:48:54.519Z,101463.27
2023-03-29T06:51:24.476Z,101458.94
2023-03-29T06:53:54.041Z,101460.55
2023-03-29T06:56:24.200Z,101464.87
2023-03-29T06:59:01.153Z,101471.02
2023-03-29T07:01:41.643Z,101468.03
2023-03-29T07:04:13.247Z,101472.84
2023-03-29T07:07:02.197Z,101475.62
2023-03-29T07:09:33.456Z,101480.98
2023-03-29T07:12:24.536Z,101481.52
2023-03-29T07:14:55.856Z,101488.73
2023-03-29T07:17:27.634Z,101485.05
2023-03-29T07:19:57.043Z,101487.34
2023-03-29T07:22:34.294Z,101493.83
2023-03-29T07:25:03.951Z,101493.83
2023-03-29T07:27:34.193Z,101498.20
2023-03-29T07:30:06.661Z,101502.40
2023-03-29T07:32:36.739Z,101501.37
2023-03-29T07:35:23.657Z,101505.77
2023-03-29T07:37:54.948Z,101508.29
2023-03-29T07:40:26.600Z,101509.44
2023-03-29T07:42:58.738Z,101504.89
2023-03-29T07:45:30.109Z,101498.66
2023-03-29T07:48:02.220Z,101497.89
2023-03-29T07:50:33.304Z,101494.95
2023-03-29T07:53:04.516Z,101496.94
2023-03-29T07:55:34.409Z,101496.01
2023-03-29T07:58:11.184Z,101493.92
2023-03-29T08:00:41.533Z,101485.89
2023-03-29T08:03:13.523Z,101478.16
2023-03-29T08:05:43.766Z,101478.16
2023-03-29T08:08:15.178Z,101482.86
2023-03-29T08:10:49.691Z,101479.47
2023-03-29T08:13:35.766Z,101478.85
2023-03-29T08:16:19.277Z,101482.70
2023-03-29T08:18:50.554Z,101485.69
2023-03-29T08:21:20.460Z,101489.86
2023-03-29T08:23:51.187Z,101485.69
2023-03-29T08:26:22.259Z,101491.05
2023-03-29T08:28:52.318Z,101487.33
2023-03-29T08:31:22.002Z,101491.75
2023-03-29T08:33:51.645Z,101479.34
2023-03-29T08:36:28.650Z,101483.02
2023-03-29T08:38:59.681Z,101478.02
2023-03-29T08:41:38.433Z,101474.91
2023-03-29T08:44:14.462Z,101474.31
2023-03-29T08:47:15.463Z,101478.41
2023-03-29T08:49:48.801Z,101484.17
2023-03-29T08:52:33.194Z,101480.73
2023-03-29T08:55:09.978Z,101475.45
2023-03-29T08:57:46.484Z,101474.36
2023-03-29T09:00:32.871Z,101480.82
2023-03-29T09:03:03.778Z,101487.27
2023-03-29T09:05:36.070Z,101483.31
2023-03-29T09:08:17.491Z,101483.81
2023-03-29T09:10:51.101Z,101473.53
2023-03-29T09:13:40.750Z,101470.75
2023-03-29T09:16:16.673Z,101468.24
2023-03-29T09:18:49.888Z,101460.58
2023-03-29T09:21:22.639Z,101458.80
2023-03-29T09:24:15.828Z,101468.03
2023-03-29T09:27:08.850Z,101463.81
2023-03-29T09:29:46.193Z,101472.33
2023-03-29T09:32:22.391Z,101475.79
2023-03-29T09:35:06.486Z,101472.20
2023-03-29T09:37:38.100Z,101469.17
2023-03-29T09:40:15.906Z,101467.73
2023-03-29T09:42:47.049Z,101474.90
2023-03-29T09:45:17.946Z,101485.13
2023-03-29T09:47:52.287Z,101479.03
2023-03-29T09:50:31.394Z,101490.67
2023-03-29T09:52:56.935Z,101494.41
2023-03-29T09:55:30.519Z,101494.39
2023-03-29T09:58:05.222Z,101492.22
2023-03-29T10:00:36.935Z,101498.57
2023-03-29T10:03:08.066Z,101490.31
2023-03-29T10:05:38.667Z,101490.08
2023-03-29T10:08:20.068Z,101482.66
2023-03-29T10:10:48.780Z,101490.31
2023-03-29T10:13:24.947Z,101485.02
2023-03-29T10:16:07.818Z,101481.00
2023-03-29T10:18:43.233Z,101474.67
2023-03-29T10:21:13.023Z,101468.96
2023-03-29T10:23:42.313Z,101462.20
2023-03-29T10:26:28.101Z,101459.47
2023-03-29T10:28:57.303Z,101458.55
2023-03-29T10:31:26.328Z,101455.09
2023-03-29T10:33:56.434Z,101456.03
2023-03-29T10:36:26.338Z,101452.62
2023-03-29T10:38:55.935Z,101444.78
2023-03-29T10:41:24.671Z,101437.56
2023-03-29T10:43:53.616Z,101435.00
2023-03-29T10:46:27.170Z,101427.73
2023-03-29T10:48:59.832Z,101431.21
2023-03-29T10:51:30.878Z,101428.34
2023-03-29T10:53:59.861Z,101417.73
2023-03-29T10:56:31.856Z,101411.91
2023-03-29T10:59:18.906Z,101407.58
2023-03-29T11:01:52.123Z,101409.11
2023-03-29T11:04:23.449Z,101412.70
2023-03-29T11:07:10.488Z,101409.66
2023-03-29T11:09:43.553Z,101413.30
2023-03-29T11:12:18.182Z,101417.41
2023-03-29T11:14:48.520Z,101423.03
2023-03-29T11:17:27.734Z,101422.15
2023-03-29T11:20:05.213Z,101428.78
2023-03-29T11:22:48.174Z,101429.76
2023-03-29T11:25:19.215Z,101428.47
2023-03-29T11:27:58.309Z,101435.25
2023-03-29T11:30:40.990Z,101438.31
2023-03-29T11:33:16.981Z,101428.22
2023-03-29T11:35:48.428Z,101434.11
2023-03-29T11:38:19.040Z,101423.37
2023-03-29T11:40:52.818Z,101426.41
2023-03-29T11:43:25.889Z,101419.75
2023-03-29T11:45:55.948Z,101421.44
2023-03-29T11:48:26.326Z,101424.17
2023-03-29T11:51:02.523Z,101415.57
2023-03-29T11:53:43.042Z,101423.28
2023-03-29T11:56:13.461Z,101424.13
2023-03-29T11:58:42.805Z,101417.28
2023-03-29T12:01:13.715Z,101416.56
2023-03-29T12:03:47.507Z,101418.33
2023-03-29T12:06:34.741Z,101412.33
2023-03-29T12:09:04.550Z,101408.64
2023-03-29T12:11:37.432Z,101402.24
2023-03-29T12:14:06.696Z,101403.76
2023-03-29T12:16:43.192Z,101389.56
2023-03-29T12:19:13.295Z,101373.06
2023-03-29T12:21:41.906Z,101369.19
2023-03-29T12:24:12.555Z,101373.80
2023-03-29T12:26:49.829Z,101370.95
2023-03-29T12:29:20.362Z,101368.57
2023-03-29T12:32:09.176Z,101364.39
2023-03-29T12:34:56.485Z,101366.70
2023-03-29T12:37:35.942Z,101368.48
2023-03-29T12:40:23.882Z,101361.91
2023-03-29T12:43:22.100Z,101358.33
2023-03-29T12:46:08.325Z,101346.59
2023-03-29T12:48:38.025Z,101329.91
2023-03-29T12:51:08.334Z,101328.53
2023-03-29T12:53:38.557Z,101326.39
2023-03-29T12:56:12.680Z,101324.73
2023-03-29T12:58:42.971Z,101327.20
2023-03-29T13:01:13.303Z,101322.20
2023-03-29T13:03:49.163Z,101324.09
2023-03-29T13:06:35.032Z,101323.70
2023-03-29T13:09:06.401Z,101329.51
2023-03-29T13:11:37.051Z,101319.72
2023-03-29T13:14:09.000Z,101302.06
2023-03-29T13:16:38.528Z,101294.65
2023-03-29T13:19:12.788Z,101292.78
2023-03-29T13:21:52.410Z,101297.73
2023-03-29T13:24:27.926Z,101290.77
2023-03-29T13:29:53.702Z,101291.67
2023-03-29T13:32:25.607Z,101279.98
2023-03-29T13:35:01.926Z,101277.92
2023-03-29T13:37:32.195Z,101277.48
2023-03-29T13:40:00.805Z,101278.56
2023-03-29T13:42:50.490Z,101278.58
2023-03-29T13:45:27.524Z,101269.51
2023-03-29T13:48:06.038Z,101265.40
2023-03-29T13:50:41.134Z,101265.55
2023-03-29T13:53:14.150Z,101265.28
2023-03-29T13:55:44.429Z,101264.59
2023-03-29T13:58:14.567Z,101268.13
2023-03-29T14:00:44.850Z,101267.11
2023-03-29T14:03:14.048Z,101261.80
2023-03-29T14:05:43.505Z,101256.78
2023-03-29T14:08:19.680Z,101244.60
2023-03-29T14:10:48.531Z,101238.94
2023-03-29T14:13:20.741Z,101231.88
2023-03-29T14:15:50.562Z,101229.80
2023-03-29T14:18:20.592Z,101236.47
2023-03-29T14:20:50.892Z,101228.50
2023-03-29T14:23:24.170Z,101216.83
2023-03-29T14:25:52.754Z,101219.27
2023-03-29T14:28:28.482Z,101216.22
2023-03-29T14:30:57.629Z,101217.95
2023-03-29T14:33:29.238Z,101206.86
2023-03-29T14:35:58.376Z,101206.84
2023-03-29T14:38:27.052Z,101202.00
2023-03-29T14:40:58.097Z,101190.12
2023-03-29T14:43:31.337Z,101179.09
2023-03-29T14:46:00.697Z,101183.45
2023-03-29T14:48:32.652Z,101174.92
2023-03-29T14:51:01.567Z,101176.92
2023-03-29T14:53:31.990Z,101176.25
2023-03-29T14:56:02.100Z,101188.16
2023-03-29T14:58:35.047Z,101177.20
2023-03-29T15:01:09.954Z,101180.76
2023-03-29T15:03:45.098Z,101177.09
2023-03-29T15:06:13.922Z,101162.31
2023-03-29T15:08:48.163Z,101165.45
2023-03-29T15:11:20.126Z,101164.14
2023-03-29T15:13:48.909Z,101169.25
2023-03-29T15:16:19.336Z,101166.32
2023-03-29T15:18:48.751Z,101150.00
2023-03-29T15:21:18.159Z,101159.19
2023-03-29T15:23:57.055Z,101171.22
2023-03-29T15:26:26.761Z,101156.29
2023-03-29T15:28:58.589Z,101143.40
2023-03-29T15:31:27.813Z,101142.48
2023-03-29T15:34:04.355Z,101146.08
2023-03-29T15:36:34.593Z,101143.89
2023-03-29T15:39:03.433Z,101133.23
2023-03-29T15:41:31.972Z,101129.97
2023-03-29T15:44:00.688Z,101129.77
2023-03-29T15:46:29.247Z,101123.52
2023-03-29T15:48:58.181Z,101120.17
2023-03-29T15:51:27.077Z,101114.54
2023-03-29T15:53:55.772Z,101101.97
2023-03-29T15:56:24.251Z,101092.39
2023-03-29T15:58:53.004Z,101088.31
2023-03-29T16:01:34.853Z,101082.70
2023-03-29T16:04:04.711Z,101082.55
2023-03-29T16:06:35.463Z,101074.37
2023-03-29T16:09:05.081Z,101068.92
2023-03-29T16:11:33.910Z,101068.58
2023-03-29T16:14:02.393Z,101060.96
2023-03-29T16:16:30.960Z,101060.95
2023-03-29T16:19:01.370Z,101050.98
2023-03-29T16:21:29.538Z,101038.41
2023-03-29T16:23:58.241Z,101040.20
2023-03-29T16:26:26.980Z,101041.20
2023-03-29T16:28:55.957Z,101037.56
2023-03-29T16:31:26.260Z,101037.70
2023-03-29T16:33:54.700Z,101042.06
2023-03-29T16:36:23.925Z,101039.20
2023-03-29T16:38:53.534Z,101031.24
2023-03-29T16:41:22.476Z,101020.95
2023-03-29T16:43:51.486Z,101017.17
2023-03-29T16:46:20.076Z,101013.06
2023-03-29T16:48:48.974Z,101014.25
2023-03-29T16:51:17.926Z,101007.13
2023-03-29T16:53:49.604Z,101006.59
2023-03-29T16:56:19.342Z,101009.56
2023-03-29T16:58:49.563Z,101013.00
2023-03-29T17:01:19.306Z,101004.03
2023-03-29T17:03:48.318Z,100999.37
2023-03-29T17:06:16.896Z,100997.70
2023-03-29T17:08:45.984Z,100991.02
2023-03-29T17:11:15.545Z,100991.33
2023-03-29T17:13:47.100Z,100989.35
2023-03-29T17:16:15.749Z,100985.81
2023-03-29T17:18:44.829Z,100977.51
2023-03-29T17:21:13.500Z,100970.04
2023-03-29T17:23:42.498Z,100970.35
2023-03-29T17:26:12.020Z,100965.82
2023-03-29T17:28:40.714Z,100968.95
2023-03-29T17:31:09.732Z,100960.30
2023-03-29T17:33:38.845Z,100954.16
2023-03-29T17:36:08.412Z,100952.34
2023-03-29T17:38:38.042Z,100952.32
2023-03-29T17:41:08.410Z,100952.12
2023-03-29T17:43:37.448Z,100952.37
2023-03-29T17:46:06.943Z,100955.49
2023-03-29T17:48:35.893Z,100952.84
2023-03-29T17:51:05.566Z,100950.50
2023-03-29T17:53:34.257Z,100957.25
2023-03-29T17:56:02.927Z,100951.89
2023-03-29T17:58:32.116Z,100950.37
2023-03-29T18:01:02.276Z,100951.54
2023-03-29T18:03:31.173Z,100946.66
2023-03-29T18:05:59.735Z,100941.02
2023-03-29T18:08:28.447Z,100935.33
2023-03-29T18:10:57.126Z,100934.30
2023-03-29T18:13:26.803Z,100932.66
2023-03-29T18:15:56.751Z,100924.11
2023-03-29T18:18:25.877Z,100918.48
2023-03-29T18:20:54.542Z,100928.34
2023-03-29T18:23:23.284Z,100926.69
2023-03-29T18:25:51.980Z,100927.14
2023-03-29T18:28:22.358Z,100925.97
2023-03-29T18:30:52.278Z,100925.20
2023-03-29T18:33:21.513Z,100924.39
2023-03-29T18:35:53.618Z,100914.98
2023-03-29T18:38:23.391Z,100908.77
2023-03-29T18:40:51.944Z,100921.19
2023-03-29T18:43:21.106Z,100921.19
2023-03-29T18:45:50.024Z,100928.06
2023-03-29T18:48:19.060Z,100921.16
2023-03-29T18:50:47.854Z,100911.34
2023-03-29T18:53:16.945Z,100915.28
2023-03-29T18:55:46.049Z,100904.48
2023-03-29T18:58:15.263Z,100896.55
2023-03-29T19:00:44.197Z,100905.05
2023-03-29T19:03:12.929Z,100905.23
2023-03-29T19:05:41.659Z,100911.22
2023-03-29T19:08:10.507Z,100909.80
2023-03-29T19:10:39.974Z,100904.85
2023-03-29T19:13:08.594Z,100897.66
2023-03-29T19:15:37.346Z,100898.98
2023-03-29T19:18:06.103Z,100888.25
2023-03-29T19:20:36.425Z,100885.61
2023-03-29T19:23:05.896Z,100874.03
2023-03-29T19:25:35.613Z,100862.82
2023-03-29T19:28:05.135Z,100849.89
2023-03-29T19:30:36.033Z,100846.44
2023-03-29T19:33:04.921Z,100850.92
2023-03-29T19:35:33.841Z,100845.69
2023-03-29T19:38:02.991Z,100849.83
2023-03-29T19:40:31.617Z,100848.88
2023-03-29T19:43:00.282Z,100844.52
2023-03-29T19:45:28.812Z,100837.45
2023-03-29T19:47:57.824Z,100834.63
2023-03-29T19:50:26.977Z,100822.59
2023-03-29T19:52:57.316Z,100830.39
2023-03-29T19:55:26.774Z,100817.84
2023-03-29T19:57:55.520Z,100807.06
2023-03-29T20:00:27.348Z,100806.40
2023-03-29T20:02:56.922Z,100797.23
2023-03-29T20:05:25.622Z,100805.53
2023-03-29T20:07:54.654Z,100804.05
2023-03-29T20:10:23.174Z,100795.28
2023-03-29T20:12:52.073Z,100798.10
2023-03-29T20:15:20.957Z,100792.63
2023-03-29T20:17:51.412Z,100784.88
2023-03-29T20:20:21.482Z,100785.18
2023-03-29T20:22:50.603Z,100773.43
2023-03-29T20:25:19.510Z,100761.20
2023-03-29T20:27:49.419Z,100758.22
2023-03-29T20:30:17.974Z,100744.69
2023-03-29T20:32:46.580Z,100742.63
2023-03-29T20:35:15.466Z,100740.26
2023-03-29T20:37:44.404Z,100736.70
2023-03-29T20:40:13.664Z,100728.92
2023-03-29T20:42:42.499Z,100729.08
2023-03-29T20:45:13.328Z,100731.33
2023-03-29T20:47:42.488Z,100722.92
2023-03-29T20:50:11.601Z,100722.77
2023-03-29T20:52:40.373Z,100724.55
2023-03-29T20:55:09.107Z,100720.42
2023-03-29T20:57:37.659Z,100717.81
2023-03-29T21:00:13.299Z,100718.09
2023-03-29T21:02:42.966Z,100719.80
2023-03-29T21:05:17.762Z,100716.77
2023-03-29T21:07:48.712Z,100707.18
2023-03-29T21:10:17.457Z,100709.77
2023-03-29T21:12:46.390Z,100711.88
2023-03-29T21:15:18.434Z,100706.11
2023-03-29T21:17:47.558Z,100705.66
2023-03-29T21:20:17.122Z,100698.41
2023-03-29T21:22:46.646Z,100696.40
2023-03-29T21:25:16.948Z,100696.42
2023-03-29T21:27:46.214Z,100689.41
2023-03-29T21:30:16.864Z,100676.34
2023-03-29T21:32:45.642Z,100665.04
2023-03-29T21:35:14.818Z,100673.91
2023-03-29T21:37:43.293Z,100669.95
2023-03-29T21:40:12.908Z,100671.60
2023-03-29T21:42:41.932Z,100667.45
2023-03-29T21:45:11.392Z,100663.87
2023-03-29T21:47:40.313Z,100667.09
2023-03-29T21:50:10.649Z,100661.25
2023-03-29T21:52:39.742Z,100651.28
2023-03-29T21:55:08.700Z,100659.15
2023-03-29T21:57:37.197Z,100658.82
2023-03-29T22:00:08.624Z,100664.97
2023-03-29T22:02:40.413Z,100663.75
2023-03-29T22:05:09.550Z,100655.88
2023-03-29T22:07:41.752Z,100669.17
2023-03-29T22:10:11.647Z,100667.08
2023-03-29T22:12:41.363Z,100656.19
2023-03-29T22:15:12.060Z,100659.85
2023-03-29T22:17:42.204Z,100658.38
2023-03-29T22:20:13.200Z,100654.54
2023-03-29T22:22:45.875Z,100656.34
2023-03-29T22:25:14.391Z,100660.95
2023-03-29T22:27:44.113Z,100661.72
2023-03-29T22:30:13.661Z,100652.44
2023-03-29T22:32:42.276Z,100650.22
2023-03-29T22:35:11.183Z,100644.53
2023-03-29T22:37:43.311Z,100645.30
2023-03-29T22:40:13.276Z,100648.03
2023-03-29T22:42:41.938Z,100643.87
2023-03-29T22:45:10.941Z,100638.77
2023-03-29T22:47:39.642Z,100633.14
2023-03-29T22:50:08.905Z,100635.82
2023-03-29T22:52:37.487Z,100630.69
2023-03-29T22:55:06.462Z,100617.15
2023-03-29T22:57:35.403Z,100628.94
2023-03-29T23:00:05.995Z,100632.16
2023-03-29T23:02:34.616Z,100636.04
2023-03-29T23:05:03.263Z,100629.49
2023-03-29T23:07:33.372Z,100622.86
2023-03-29T23:10:03.692Z,100620.01
2023-03-29T23:12:32.500Z,100612.23
2023-03-29T23:15:01.293Z,100608.30
2023-03-29T23:17:30.806Z,100601.28
2023-03-29T23:19:59.791Z,100605.36
2023-03-29T23:22:28.878Z,100595.52
2023-03-29T23:24:57.469Z,100589.89
2023-03-29T23:27:26.381Z,100604.62
2023-03-29T23:29:56.382Z,100606.10
2023-03-29T23:32:25.066Z,100601.32
2023-03-29T23:34:53.655Z,100612.72
2023-03-29T23:37:23.417Z,100614.91
2023-03-29T23:39:52.005Z,100613.28
2023-03-29T23:42:21.089Z,100607.73
2023-03-29T23:44:50.748Z,100598.31
2023-03-29T23:47:19.565Z,100582.85
2023-03-29T23:49:48.323Z,100577.62
2023-03-29T23:52:17.573Z,100571.41
2023-03-29T23:54:46.572Z,100561.10
2023-03-29T23:57:15.795Z,100568.03
2023-03-29T23:59:44.518Z,100572.89
